sensor_id;sensor_type;location;lat;lon;timestamp;P1;durP1;ratioP1;P2;durP2;ratioP2
76576;SDS011;65441;44.748;37.600;2023-05-23T00:02:28;13.75;;;5.10;;
76576;SDS011;65441;44.748;37.600;2023-05-23T00:04:56;10.00;;;3.90;;
76576;SDS011;65441;44.748;37.600;2023-05-23T00:07:29;9.60;;;4.70;;
76576;SDS011;65441;44.748;37.600;2023-05-23T00:09:58;10.50;;;4.88;;
76576;SDS011;65441;44.748;37.600;2023-05-23T00:12:28;10.65;;;5.60;;
76576;SDS011;65441;44.748;37.600;2023-05-23T00:14:57;9.77;;;5.28;;
76576;SDS011;65441;44.748;37.600;2023-05-23T00:17:26;7.95;;;4.00;;
76576;SDS011;65441;44.748;37.600;2023-05-23T00:19:54;8.18;;;3.70;;
76576;SDS011;65441;44.748;37.600;2023-05-23T00:22:23;10.18;;;4.47;;
76576;SDS011;65441;44.748;37.600;2023-05-23T00:24:55;9.68;;;5.00;;
76576;SDS011;65441;44.748;37.600;2023-05-23T00:27:34;9.93;;;4.93;;
76576;SDS011;65441;44.748;37.600;2023-05-23T00:30:04;9.63;;;4.10;;
76576;SDS011;65441;44.748;37.600;2023-05-23T00:32:33;10.15;;;4.63;;
76576;SDS011;65441;44.748;37.600;2023-05-23T00:35:02;9.57;;;5.00;;
76576;SDS011;65441;44.748;37.600;2023-05-23T00:37:31;9.75;;;4.20;;
76576;SDS011;65441;44.748;37.600;2023-05-23T00:40:00;9.80;;;4.20;;
76576;SDS011;65441;44.748;37.600;2023-05-23T00:42:29;9.85;;;4.53;;
76576;SDS011;65441;44.748;37.600;2023-05-23T00:44:59;9.13;;;3.75;;
76576;SDS011;65441;44.748;37.600;2023-05-23T00:47:28;8.63;;;4.60;;
76576;SDS011;65441;44.748;37.600;2023-05-23T00:49:57;9.18;;;4.50;;
76576;SDS011;65441;44.748;37.600;2023-05-23T00:52:27;9.70;;;4.28;;
76576;SDS011;65441;44.748;37.600;2023-05-23T00:54:56;9.00;;;4.40;;
76576;SDS011;65441;44.748;37.600;2023-05-23T00:57:26;8.20;;;4.03;;
76576;SDS011;65441;44.748;37.600;2023-05-23T00:59:55;10.35;;;4.40;;
76576;SDS011;65441;44.748;37.600;2023-05-23T01:02:25;9.18;;;4.50;;
76576;SDS011;65441;44.748;37.600;2023-05-23T01:04:54;9.60;;;4.25;;
76576;SDS011;65441;44.748;37.600;2023-05-23T01:07:23;11.35;;;4.47;;
76576;SDS011;65441;44.748;37.600;2023-05-23T01:09:52;7.35;;;3.47;;
76576;SDS011;65441;44.748;37.600;2023-05-23T01:12:24;10.40;;;5.10;;
76576;SDS011;65441;44.748;37.600;2023-05-23T01:14:58;9.93;;;3.83;;
76576;SDS011;65441;44.748;37.600;2023-05-23T01:17:33;9.15;;;4.07;;
76576;SDS011;65441;44.748;37.600;2023-05-23T01:20:10;11.00;;;4.45;;
76576;SDS011;65441;44.748;37.600;2023-05-23T01:25:48;9.65;;;4.15;;
76576;SDS011;65441;44.748;37.600;2023-05-23T01:28:37;9.20;;;4.13;;
76576;SDS011;65441;44.748;37.600;2023-05-23T01:31:11;11.65;;;4.65;;
76576;SDS011;65441;44.748;37.600;2023-05-23T01:33:40;9.15;;;4.05;;
76576;SDS011;65441;44.748;37.600;2023-05-23T01:36:11;9.23;;;4.30;;
76576;SDS011;65441;44.748;37.600;2023-05-23T01:38:41;12.05;;;5.63;;
76576;SDS011;65441;44.748;37.600;2023-05-23T01:41:10;12.07;;;5.28;;
76576;SDS011;65441;44.748;37.600;2023-05-23T01:43:40;11.48;;;5.10;;
76576;SDS011;65441;44.748;37.600;2023-05-23T01:46:09;9.85;;;4.43;;
76576;SDS011;65441;44.748;37.600;2023-05-23T01:48:38;9.50;;;4.63;;
76576;SDS011;65441;44.748;37.600;2023-05-23T01:51:08;16.95;;;6.97;;
76576;SDS011;65441;44.748;37.600;2023-05-23T01:53:37;8.93;;;4.10;;
76576;SDS011;65441;44.748;37.600;2023-05-23T01:56:06;8.80;;;3.95;;
76576;SDS011;65441;44.748;37.600;2023-05-23T01:58:35;9.52;;;5.22;;
76576;SDS011;65441;44.748;37.600;2023-05-23T02:01:05;11.95;;;5.25;;
76576;SDS011;65441;44.748;37.600;2023-05-23T02:03:36;14.55;;;6.63;;
76576;SDS011;65441;44.748;37.600;2023-05-23T02:06:05;15.35;;;7.25;;
76576;SDS011;65441;44.748;37.600;2023-05-23T02:08:34;16.10;;;7.55;;
76576;SDS011;65441;44.748;37.600;2023-05-23T02:11:03;16.77;;;6.88;;
76576;SDS011;65441;44.748;37.600;2023-05-23T02:13:34;13.93;;;5.53;;
76576;SDS011;65441;44.748;37.600;2023-05-23T02:16:03;12.95;;;6.60;;
76576;SDS011;65441;44.748;37.600;2023-05-23T02:18:33;13.80;;;7.63;;
76576;SDS011;65441;44.748;37.600;2023-05-23T02:21:03;16.13;;;7.25;;
76576;SDS011;65441;44.748;37.600;2023-05-23T02:23:32;14.00;;;7.20;;
76576;SDS011;65441;44.748;37.600;2023-05-23T02:26:03;14.70;;;6.13;;
76576;SDS011;65441;44.748;37.600;2023-05-23T02:28:32;15.68;;;7.38;;
76576;SDS011;65441;44.748;37.600;2023-05-23T02:31:01;15.60;;;7.85;;
76576;SDS011;65441;44.748;37.600;2023-05-23T02:33:30;16.98;;;7.70;;
76576;SDS011;65441;44.748;37.600;2023-05-23T02:36:00;17.92;;;8.50;;
76576;SDS011;65441;44.748;37.600;2023-05-23T02:38:29;16.42;;;8.00;;
76576;SDS011;65441;44.748;37.600;2023-05-23T02:40:58;19.48;;;8.82;;
76576;SDS011;65441;44.748;37.600;2023-05-23T02:43:27;19.67;;;9.68;;
76576;SDS011;65441;44.748;37.600;2023-05-23T02:45:56;16.23;;;8.48;;
76576;SDS011;65441;44.748;37.600;2023-05-23T02:48:25;15.02;;;6.85;;
76576;SDS011;65441;44.748;37.600;2023-05-23T02:50:53;19.40;;;8.98;;
76576;SDS011;65441;44.748;37.600;2023-05-23T02:53:23;16.85;;;8.52;;
76576;SDS011;65441;44.748;37.600;2023-05-23T02:55:53;11.65;;;6.05;;
76576;SDS011;65441;44.748;37.600;2023-05-23T02:58:21;17.45;;;8.80;;
76576;SDS011;65441;44.748;37.600;2023-05-23T03:00:51;19.65;;;8.80;;
76576;SDS011;65441;44.748;37.600;2023-05-23T03:03:20;12.90;;;5.68;;
76576;SDS011;65441;44.748;37.600;2023-05-23T03:05:48;16.73;;;7.35;;
76576;SDS011;65441;44.748;37.600;2023-05-23T03:08:17;15.68;;;8.20;;
76576;SDS011;65441;44.748;37.600;2023-05-23T03:10:48;16.83;;;8.07;;
76576;SDS011;65441;44.748;37.600;2023-05-23T03:13:16;14.80;;;7.32;;
76576;SDS011;65441;44.748;37.600;2023-05-23T03:15:45;17.45;;;7.63;;
76576;SDS011;65441;44.748;37.600;2023-05-23T03:18:14;17.67;;;7.72;;
76576;SDS011;65441;44.748;37.600;2023-05-23T03:20:43;14.48;;;7.97;;
76576;SDS011;65441;44.748;37.600;2023-05-23T03:23:12;13.15;;;7.15;;
76576;SDS011;65441;44.748;37.600;2023-05-23T03:25:41;16.27;;;7.75;;
76576;SDS011;65441;44.748;37.600;2023-05-23T03:28:12;15.77;;;8.20;;
76576;SDS011;65441;44.748;37.600;2023-05-23T03:30:40;15.27;;;7.95;;
76576;SDS011;65441;44.748;37.600;2023-05-23T03:33:09;14.88;;;7.13;;
76576;SDS011;65441;44.748;37.600;2023-05-23T03:35:38;17.67;;;7.32;;
76576;SDS011;65441;44.748;37.600;2023-05-23T03:38:07;17.10;;;7.22;;
76576;SDS011;65441;44.748;37.600;2023-05-23T03:40:37;16.10;;;7.43;;
76576;SDS011;65441;44.748;37.600;2023-05-23T03:43:07;13.20;;;6.55;;
76576;SDS011;65441;44.748;37.600;2023-05-23T03:45:40;11.85;;;5.53;;
76576;SDS011;65441;44.748;37.600;2023-05-23T03:48:14;14.20;;;7.10;;
76576;SDS011;65441;44.748;37.600;2023-05-23T03:50:43;15.65;;;7.82;;
76576;SDS011;65441;44.748;37.600;2023-05-23T03:53:12;17.13;;;7.45;;
76576;SDS011;65441;44.748;37.600;2023-05-23T03:55:41;17.48;;;7.40;;
76576;SDS011;65441;44.748;37.600;2023-05-23T03:58:11;13.10;;;6.72;;
76576;SDS011;65441;44.748;37.600;2023-05-23T04:00:44;14.07;;;7.72;;
76576;SDS011;65441;44.748;37.600;2023-05-23T04:03:15;12.55;;;6.72;;
76576;SDS011;65441;44.748;37.600;2023-05-23T04:05:44;13.82;;;6.97;;
76576;SDS011;65441;44.748;37.600;2023-05-23T04:08:14;14.63;;;6.90;;
76576;SDS011;65441;44.748;37.600;2023-05-23T04:10:43;11.57;;;6.18;;
76576;SDS011;65441;44.748;37.600;2023-05-23T04:13:12;12.63;;;6.57;;
76576;SDS011;65441;44.748;37.600;2023-05-23T04:15:42;15.07;;;6.28;;
76576;SDS011;65441;44.748;37.600;2023-05-23T04:18:13;13.07;;;6.30;;
76576;SDS011;65441;44.748;37.600;2023-05-23T04:20:43;16.30;;;6.25;;
76576;SDS011;65441;44.748;37.600;2023-05-23T04:23:12;12.50;;;6.65;;
76576;SDS011;65441;44.748;37.600;2023-05-23T04:25:44;17.40;;;6.20;;
76576;SDS011;65441;44.748;37.600;2023-05-23T04:28:25;11.52;;;5.93;;
76576;SDS011;65441;44.748;37.600;2023-05-23T04:30:56;13.23;;;5.82;;
76576;SDS011;65441;44.748;37.600;2023-05-23T04:33:28;11.75;;;6.05;;
76576;SDS011;65441;44.748;37.600;2023-05-23T04:35:57;13.40;;;6.47;;
76576;SDS011;65441;44.748;37.600;2023-05-23T04:38:26;12.45;;;5.60;;
76576;SDS011;65441;44.748;37.600;2023-05-23T04:40:55;10.55;;;5.75;;
76576;SDS011;65441;44.748;37.600;2023-05-23T04:43:43;9.75;;;4.88;;
76576;SDS011;65441;44.748;37.600;2023-05-23T04:46:36;12.93;;;6.07;;
76576;SDS011;65441;44.748;37.600;2023-05-23T04:49:27;11.18;;;5.50;;
76576;SDS011;65441;44.748;37.600;2023-05-23T04:52:00;13.75;;;6.40;;
76576;SDS011;65441;44.748;37.600;2023-05-23T04:54:31;14.23;;;5.85;;
76576;SDS011;65441;44.748;37.600;2023-05-23T04:57:04;14.43;;;6.13;;
76576;SDS011;65441;44.748;37.600;2023-05-23T04:59:33;12.43;;;6.03;;
76576;SDS011;65441;44.748;37.600;2023-05-23T05:02:05;13.32;;;5.78;;
76576;SDS011;65441;44.748;37.600;2023-05-23T05:04:35;11.68;;;5.65;;
76576;SDS011;65441;44.748;37.600;2023-05-23T05:07:05;14.77;;;6.57;;
76576;SDS011;65441;44.748;37.600;2023-05-23T05:09:34;12.68;;;6.32;;
76576;SDS011;65441;44.748;37.600;2023-05-23T05:12:03;14.02;;;6.07;;
76576;SDS011;65441;44.748;37.600;2023-05-23T05:14:32;14.05;;;6.20;;
76576;SDS011;65441;44.748;37.600;2023-05-23T05:17:01;12.82;;;6.20;;
76576;SDS011;65441;44.748;37.600;2023-05-23T05:19:39;12.55;;;5.55;;
76576;SDS011;65441;44.748;37.600;2023-05-23T05:22:08;13.68;;;6.32;;
76576;SDS011;65441;44.748;37.600;2023-05-23T05:24:37;10.57;;;5.45;;
76576;SDS011;65441;44.748;37.600;2023-05-23T05:27:07;13.90;;;6.00;;
76576;SDS011;65441;44.748;37.600;2023-05-23T05:29:37;12.63;;;6.10;;
76576;SDS011;65441;44.748;37.600;2023-05-23T05:32:06;12.55;;;6.47;;
76576;SDS011;65441;44.748;37.600;2023-05-23T05:34:35;14.32;;;6.55;;
76576;SDS011;65441;44.748;37.600;2023-05-23T05:37:05;15.70;;;6.00;;
76576;SDS011;65441;44.748;37.600;2023-05-23T05:39:35;13.73;;;6.13;;
76576;SDS011;65441;44.748;37.600;2023-05-23T05:42:05;14.23;;;6.70;;
76576;SDS011;65441;44.748;37.600;2023-05-23T05:44:34;10.55;;;5.35;;
76576;SDS011;65441;44.748;37.600;2023-05-23T05:47:03;11.20;;;5.60;;
76576;SDS011;65441;44.748;37.600;2023-05-23T05:49:33;10.65;;;5.82;;
76576;SDS011;65441;44.748;37.600;2023-05-23T05:52:02;11.27;;;5.93;;
76576;SDS011;65441;44.748;37.600;2023-05-23T05:54:35;13.02;;;5.90;;
76576;SDS011;65441;44.748;37.600;2023-05-23T05:57:04;13.20;;;6.45;;
76576;SDS011;65441;44.748;37.600;2023-05-23T05:59:34;11.93;;;5.38;;
76576;SDS011;65441;44.748;37.600;2023-05-23T06:02:03;13.35;;;6.32;;
76576;SDS011;65441;44.748;37.600;2023-05-23T06:04:32;13.35;;;6.03;;
76576;SDS011;65441;44.748;37.600;2023-05-23T06:07:01;12.07;;;5.72;;
76576;SDS011;65441;44.748;37.600;2023-05-23T06:09:30;15.00;;;6.30;;
76576;SDS011;65441;44.748;37.600;2023-05-23T06:12:01;11.75;;;6.03;;
76576;SDS011;65441;44.748;37.600;2023-05-23T06:14:30;11.30;;;4.90;;
76576;SDS011;65441;44.748;37.600;2023-05-23T06:16:58;11.95;;;5.30;;
76576;SDS011;65441;44.748;37.600;2023-05-23T06:19:28;12.77;;;5.22;;
76576;SDS011;65441;44.748;37.600;2023-05-23T06:21:58;12.18;;;6.15;;
76576;SDS011;65441;44.748;37.600;2023-05-23T06:24:27;11.98;;;5.32;;
76576;SDS011;65441;44.748;37.600;2023-05-23T06:26:56;11.98;;;5.18;;
76576;SDS011;65441;44.748;37.600;2023-05-23T06:29:26;12.27;;;4.70;;
76576;SDS011;65441;44.748;37.600;2023-05-23T06:31:56;11.35;;;5.30;;
76576;SDS011;65441;44.748;37.600;2023-05-23T06:34:25;12.35;;;5.63;;
76576;SDS011;65441;44.748;37.600;2023-05-23T06:36:54;10.13;;;5.32;;
76576;SDS011;65441;44.748;37.600;2023-05-23T06:39:24;10.65;;;4.80;;
76576;SDS011;65441;44.748;37.600;2023-05-23T06:41:54;9.98;;;5.00;;
76576;SDS011;65441;44.748;37.600;2023-05-23T06:44:23;10.50;;;4.72;;
76576;SDS011;65441;44.748;37.600;2023-05-23T06:46:55;10.93;;;5.80;;
76576;SDS011;65441;44.748;37.600;2023-05-23T06:49:26;9.60;;;5.10;;
76576;SDS011;65441;44.748;37.600;2023-05-23T06:51:55;14.73;;;5.28;;
76576;SDS011;65441;44.748;37.600;2023-05-23T06:54:25;12.43;;;5.72;;
76576;SDS011;65441;44.748;37.600;2023-05-23T06:56:54;9.35;;;4.57;;
76576;SDS011;65441;44.748;37.600;2023-05-23T06:59:23;8.95;;;4.50;;
76576;SDS011;65441;44.748;37.600;2023-05-23T07:01:52;12.48;;;5.18;;
76576;SDS011;65441;44.748;37.600;2023-05-23T07:04:25;11.95;;;5.22;;
76576;SDS011;65441;44.748;37.600;2023-05-23T07:06:55;9.43;;;4.90;;
76576;SDS011;65441;44.748;37.600;2023-05-23T07:09:25;10.80;;;4.90;;
76576;SDS011;65441;44.748;37.600;2023-05-23T07:12:04;10.48;;;5.15;;
76576;SDS011;65441;44.748;37.600;2023-05-23T07:14:35;12.25;;;4.90;;
76576;SDS011;65441;44.748;37.600;2023-05-23T07:17:05;8.52;;;4.45;;
76576;SDS011;65441;44.748;37.600;2023-05-23T07:19:36;11.10;;;5.40;;
76576;SDS011;65441;44.748;37.600;2023-05-23T07:22:06;11.25;;;4.13;;
76576;SDS011;65441;44.748;37.600;2023-05-23T07:24:37;12.63;;;5.55;;
76576;SDS011;65441;44.748;37.600;2023-05-23T07:27:10;9.20;;;4.97;;
76576;SDS011;65441;44.748;37.600;2023-05-23T07:29:39;11.05;;;4.72;;
76576;SDS011;65441;44.748;37.600;2023-05-23T07:32:10;9.90;;;4.82;;
76576;SDS011;65441;44.748;37.600;2023-05-23T07:34:40;11.70;;;5.38;;
76576;SDS011;65441;44.748;37.600;2023-05-23T07:37:09;11.45;;;5.18;;
76576;SDS011;65441;44.748;37.600;2023-05-23T07:39:43;10.15;;;5.72;;
76576;SDS011;65441;44.748;37.600;2023-05-23T07:42:12;10.07;;;4.70;;
76576;SDS011;65441;44.748;37.600;2023-05-23T07:44:41;13.90;;;5.85;;
76576;SDS011;65441;44.748;37.600;2023-05-23T07:47:10;9.10;;;4.53;;
76576;SDS011;65441;44.748;37.600;2023-05-23T07:49:40;8.18;;;3.95;;
76576;SDS011;65441;44.748;37.600;2023-05-23T07:52:10;9.40;;;5.05;;
76576;SDS011;65441;44.748;37.600;2023-05-23T07:54:40;12.52;;;5.65;;
76576;SDS011;65441;44.748;37.600;2023-05-23T07:57:10;11.57;;;5.75;;
76576;SDS011;65441;44.748;37.600;2023-05-23T07:59:41;12.13;;;5.47;;
76576;SDS011;65441;44.748;37.600;2023-05-23T08:02:14;12.52;;;5.72;;
76576;SDS011;65441;44.748;37.600;2023-05-23T08:04:46;13.75;;;5.30;;
76576;SDS011;65441;44.748;37.600;2023-05-23T08:07:15;10.00;;;4.90;;
76576;SDS011;65441;44.748;37.600;2023-05-23T08:09:52;12.93;;;5.05;;
76576;SDS011;65441;44.748;37.600;2023-05-23T08:12:22;10.77;;;5.07;;
76576;SDS011;65441;44.748;37.600;2023-05-23T08:15:00;12.02;;;4.95;;
76576;SDS011;65441;44.748;37.600;2023-05-23T08:17:34;9.02;;;4.63;;
76576;SDS011;65441;44.748;37.600;2023-05-23T08:20:06;10.07;;;4.30;;
76576;SDS011;65441;44.748;37.600;2023-05-23T08:22:36;9.85;;;4.70;;
76576;SDS011;65441;44.748;37.600;2023-05-23T08:25:06;8.45;;;4.43;;
76576;SDS011;65441;44.748;37.600;2023-05-23T08:27:37;11.73;;;5.72;;
76576;SDS011;65441;44.748;37.600;2023-05-23T08:30:27;13.70;;;5.90;;
76576;SDS011;65441;44.748;37.600;2023-05-23T08:33:00;11.35;;;6.00;;
76576;SDS011;65441;44.748;37.600;2023-05-23T08:35:33;11.98;;;5.20;;
76576;SDS011;65441;44.748;37.600;2023-05-23T08:38:06;11.57;;;5.30;;
76576;SDS011;65441;44.748;37.600;2023-05-23T08:40:37;9.90;;;5.00;;
76576;SDS011;65441;44.748;37.600;2023-05-23T08:43:11;9.82;;;4.22;;
76576;SDS011;65441;44.748;37.600;2023-05-23T08:45:40;11.75;;;5.32;;
76576;SDS011;65441;44.748;37.600;2023-05-23T08:48:10;10.40;;;5.28;;
76576;SDS011;65441;44.748;37.600;2023-05-23T08:50:45;9.93;;;3.70;;
76576;SDS011;65441;44.748;37.600;2023-05-23T08:53:18;9.60;;;4.32;;
76576;SDS011;65441;44.748;37.600;2023-05-23T08:55:58;10.43;;;4.43;;
76576;SDS011;65441;44.748;37.600;2023-05-23T08:58:41;8.23;;;4.00;;
76576;SDS011;65441;44.748;37.600;2023-05-23T09:01:16;6.82;;;3.30;;
76576;SDS011;65441;44.748;37.600;2023-05-23T09:03:52;8.35;;;3.90;;
76576;SDS011;65441;44.748;37.600;2023-05-23T09:06:49;7.45;;;3.88;;
76576;SDS011;65441;44.748;37.600;2023-05-23T09:09:19;10.88;;;3.72;;
76576;SDS011;65441;44.748;37.600;2023-05-23T09:11:49;7.38;;;3.60;;
76576;SDS011;65441;44.748;37.600;2023-05-23T09:14:20;11.15;;;3.65;;
76576;SDS011;65441;44.748;37.600;2023-05-23T09:16:52;12.20;;;3.70;;
76576;SDS011;65441;44.748;37.600;2023-05-23T09:19:29;8.73;;;3.58;;
76576;SDS011;65441;44.748;37.600;2023-05-23T09:22:11;8.30;;;2.88;;
76576;SDS011;65441;44.748;37.600;2023-05-23T09:24:54;8.85;;;2.97;;
76576;SDS011;65441;44.748;37.600;2023-05-23T09:27:26;8.70;;;3.00;;
76576;SDS011;65441;44.748;37.600;2023-05-23T09:30:02;6.53;;;2.58;;
76576;SDS011;65441;44.748;37.600;2023-05-23T09:32:35;6.07;;;2.30;;
76576;SDS011;65441;44.748;37.600;2023-05-23T09:35:07;5.65;;;2.63;;
76576;SDS011;65441;44.748;37.600;2023-05-23T09:37:41;8.45;;;3.00;;
76576;SDS011;65441;44.748;37.600;2023-05-23T09:40:16;10.13;;;3.10;;
76576;SDS011;65441;44.748;37.600;2023-05-23T09:42:57;8.32;;;3.50;;
76576;SDS011;65441;44.748;37.600;2023-05-23T09:45:35;7.75;;;2.90;;
76576;SDS011;65441;44.748;37.600;2023-05-23T09:48:12;9.57;;;3.13;;
76576;SDS011;65441;44.748;37.600;2023-05-23T09:50:47;7.82;;;2.92;;
76576;SDS011;65441;44.748;37.600;2023-05-23T09:53:23;11.63;;;3.20;;
76576;SDS011;65441;44.748;37.600;2023-05-23T09:55:55;11.25;;;3.75;;
76576;SDS011;65441;44.748;37.600;2023-05-23T09:58:27;9.88;;;3.58;;
76576;SDS011;65441;44.748;37.600;2023-05-23T10:01:00;9.70;;;2.97;;
76576;SDS011;65441;44.748;37.600;2023-05-23T10:03:36;7.90;;;3.00;;
76576;SDS011;65441;44.748;37.600;2023-05-23T10:06:16;8.23;;;2.88;;
76576;SDS011;65441;44.748;37.600;2023-05-23T10:08:57;10.45;;;3.22;;
76576;SDS011;65441;44.748;37.600;2023-05-23T10:14:49;8.05;;;3.00;;
76576;SDS011;65441;44.748;37.600;2023-05-23T10:17:26;9.10;;;2.60;;
76576;SDS011;65441;44.748;37.600;2023-05-23T10:20:08;11.27;;;2.97;;
76576;SDS011;65441;44.748;37.600;2023-05-23T10:22:50;13.88;;;2.63;;
76576;SDS011;65441;44.748;37.600;2023-05-23T10:25:31;8.30;;;2.67;;
76576;SDS011;65441;44.748;37.600;2023-05-23T10:28:06;8.95;;;3.25;;
76576;SDS011;65441;44.748;37.600;2023-05-23T10:30:42;7.72;;;2.78;;
76576;SDS011;65441;44.748;37.600;2023-05-23T10:33:20;10.07;;;2.80;;
76576;SDS011;65441;44.748;37.600;2023-05-23T10:35:56;14.65;;;2.78;;
76576;SDS011;65441;44.748;37.600;2023-05-23T10:38:57;11.70;;;2.65;;
76576;SDS011;65441;44.748;37.600;2023-05-23T10:41:40;13.18;;;2.88;;
76576;SDS011;65441;44.748;37.600;2023-05-23T10:44:22;12.07;;;2.63;;
76576;SDS011;65441;44.748;37.600;2023-05-23T10:47:06;11.18;;;2.97;;
76576;SDS011;65441;44.748;37.600;2023-05-23T10:49:45;10.10;;;2.58;;
76576;SDS011;65441;44.748;37.600;2023-05-23T10:52:22;12.10;;;4.03;;
76576;SDS011;65441;44.748;37.600;2023-05-23T10:58:15;15.23;;;3.47;;
76576;SDS011;65441;44.748;37.600;2023-05-23T11:00:52;13.57;;;3.00;;
76576;SDS011;65441;44.748;37.600;2023-05-23T11:03:32;13.18;;;2.85;;
76576;SDS011;65441;44.748;37.600;2023-05-23T11:06:08;13.02;;;3.28;;
76576;SDS011;65441;44.748;37.600;2023-05-23T11:09:11;14.25;;;3.50;;
76576;SDS011;65441;44.748;37.600;2023-05-23T11:11:58;11.88;;;3.00;;
76576;SDS011;65441;44.748;37.600;2023-05-23T11:14:52;12.35;;;2.80;;
76576;SDS011;65441;44.748;37.600;2023-05-23T11:17:31;14.55;;;2.80;;
76576;SDS011;65441;44.748;37.600;2023-05-23T11:20:17;9.75;;;2.70;;
76576;SDS011;65441;44.748;37.600;2023-05-23T11:22:57;13.38;;;2.47;;
76576;SDS011;65441;44.748;37.600;2023-05-23T11:25:43;9.68;;;2.60;;
76576;SDS011;65441;44.748;37.600;2023-05-23T11:28:23;11.35;;;2.70;;
76576;SDS011;65441;44.748;37.600;2023-05-23T11:33:28;9.68;;;2.60;;
76576;SDS011;65441;44.748;37.600;2023-05-23T11:36:01;12.32;;;2.92;;
76576;SDS011;65441;44.748;37.600;2023-05-23T11:38:38;9.00;;;2.60;;
76576;SDS011;65441;44.748;37.600;2023-05-23T11:41:11;11.98;;;2.78;;
76576;SDS011;65441;44.748;37.600;2023-05-23T11:43:53;12.23;;;2.42;;
76576;SDS011;65441;44.748;37.600;2023-05-23T11:46:27;12.35;;;2.67;;
76576;SDS011;65441;44.748;37.600;2023-05-23T11:49:05;13.40;;;3.10;;
76576;SDS011;65441;44.748;37.600;2023-05-23T11:51:42;12.38;;;2.78;;
76576;SDS011;65441;44.748;37.600;2023-05-23T11:56:45;11.73;;;2.80;;
76576;SDS011;65441;44.748;37.600;2023-05-23T11:59:20;11.80;;;2.60;;
76576;SDS011;65441;44.748;37.600;2023-05-23T12:01:54;14.95;;;2.78;;
76576;SDS011;65441;44.748;37.600;2023-05-23T12:04:28;10.95;;;3.63;;
76576;SDS011;65441;44.748;37.600;2023-05-23T12:07:06;9.15;;;4.05;;
76576;SDS011;65441;44.748;37.600;2023-05-23T12:09:44;9.35;;;3.47;;
76576;SDS011;65441;44.748;37.600;2023-05-23T12:12:27;13.63;;;3.10;;
76576;SDS011;65441;44.748;37.600;2023-05-23T12:15:03;9.95;;;2.83;;
76576;SDS011;65441;44.748;37.600;2023-05-23T12:17:41;11.27;;;2.67;;
76576;SDS011;65441;44.748;37.600;2023-05-23T12:20:58;12.77;;;2.70;;
76576;SDS011;65441;44.748;37.600;2023-05-23T12:23:19;14.10;;;3.22;;
76576;SDS011;65441;44.748;37.600;2023-05-23T12:25:58;9.88;;;3.22;;
76576;SDS011;65441;44.748;37.600;2023-05-23T12:28:37;13.40;;;3.22;;
76576;SDS011;65441;44.748;37.600;2023-05-23T12:31:12;10.30;;;3.35;;
76576;SDS011;65441;44.748;37.600;2023-05-23T12:33:52;14.48;;;3.42;;
76576;SDS011;65441;44.748;37.600;2023-05-23T12:36:28;15.40;;;3.75;;
76576;SDS011;65441;44.748;37.600;2023-05-23T12:39:08;12.93;;;3.55;;
76576;SDS011;65441;44.748;37.600;2023-05-23T12:41:44;14.18;;;3.90;;
76576;SDS011;65441;44.748;37.600;2023-05-23T12:44:17;14.82;;;3.70;;
76576;SDS011;65441;44.748;37.600;2023-05-23T12:46:56;12.52;;;3.90;;
76576;SDS011;65441;44.748;37.600;2023-05-23T12:49:32;11.73;;;3.38;;
76576;SDS011;65441;44.748;37.600;2023-05-23T12:57:22;14.27;;;3.67;;
76576;SDS011;65441;44.748;37.600;2023-05-23T12:59:57;9.98;;;3.47;;
76576;SDS011;65441;44.748;37.600;2023-05-23T13:02:39;20.13;;;3.85;;
76576;SDS011;65441;44.748;37.600;2023-05-23T13:05:14;11.40;;;3.33;;
76576;SDS011;65441;44.748;37.600;2023-05-23T13:07:49;15.05;;;3.80;;
76576;SDS011;65441;44.748;37.600;2023-05-23T13:10:26;10.55;;;3.13;;
76576;SDS011;65441;44.748;37.600;2023-05-23T13:13:02;10.35;;;3.17;;
76576;SDS011;65441;44.748;37.600;2023-05-23T13:15:36;14.55;;;3.22;;
76576;SDS011;65441;44.748;37.600;2023-05-23T13:18:10;12.50;;;2.95;;
76576;SDS011;65441;44.748;37.600;2023-05-23T13:20:45;10.10;;;3.33;;
76576;SDS011;65441;44.748;37.600;2023-05-23T13:23:20;11.45;;;3.22;;
76576;SDS011;65441;44.748;37.600;2023-05-23T13:25:54;11.07;;;3.20;;
76576;SDS011;65441;44.748;37.600;2023-05-23T13:28:27;11.85;;;3.15;;
76576;SDS011;65441;44.748;37.600;2023-05-23T13:31:07;11.57;;;4.05;;
76576;SDS011;65441;44.748;37.600;2023-05-23T13:33:41;9.63;;;3.15;;
76576;SDS011;65441;44.748;37.600;2023-05-23T13:36:17;10.80;;;3.28;;
76576;SDS011;65441;44.748;37.600;2023-05-23T13:38:53;11.43;;;2.75;;
76576;SDS011;65441;44.748;37.600;2023-05-23T13:41:28;10.00;;;2.90;;
76576;SDS011;65441;44.748;37.600;2023-05-23T13:44:02;11.05;;;3.72;;
76576;SDS011;65441;44.748;37.600;2023-05-23T13:46:45;7.93;;;2.92;;
76576;SDS011;65441;44.748;37.600;2023-05-23T13:49:21;9.73;;;3.63;;
76576;SDS011;65441;44.748;37.600;2023-05-23T13:51:53;9.80;;;3.70;;
76576;SDS011;65441;44.748;37.600;2023-05-23T13:54:25;12.80;;;3.80;;
76576;SDS011;65441;44.748;37.600;2023-05-23T13:56:58;11.65;;;3.30;;
76576;SDS011;65441;44.748;37.600;2023-05-23T13:59:33;8.35;;;3.13;;
76576;SDS011;65441;44.748;37.600;2023-05-23T14:02:06;8.80;;;3.13;;
76576;SDS011;65441;44.748;37.600;2023-05-23T14:04:39;10.65;;;3.22;;
76576;SDS011;65441;44.748;37.600;2023-05-23T14:07:15;14.50;;;3.13;;
76576;SDS011;65441;44.748;37.600;2023-05-23T14:09:48;10.27;;;3.55;;
76576;SDS011;65441;44.748;37.600;2023-05-23T14:12:20;10.27;;;3.17;;
76576;SDS011;65441;44.748;37.600;2023-05-23T14:14:53;10.25;;;3.42;;
76576;SDS011;65441;44.748;37.600;2023-05-23T14:17:24;11.57;;;3.03;;
76576;SDS011;65441;44.748;37.600;2023-05-23T14:19:57;8.18;;;2.83;;
76576;SDS011;65441;44.748;37.600;2023-05-23T14:22:33;9.32;;;3.13;;
76576;SDS011;65441;44.748;37.600;2023-05-23T14:25:05;11.07;;;2.85;;
76576;SDS011;65441;44.748;37.600;2023-05-23T14:27:39;9.57;;;2.78;;
76576;SDS011;65441;44.748;37.600;2023-05-23T14:30:13;10.45;;;3.95;;
76576;SDS011;65441;44.748;37.600;2023-05-23T14:32:47;8.57;;;2.67;;
76576;SDS011;65441;44.748;37.600;2023-05-23T14:35:23;13.20;;;3.35;;
76576;SDS011;65441;44.748;37.600;2023-05-23T14:37:59;12.18;;;2.53;;
76576;SDS011;65441;44.748;37.600;2023-05-23T14:40:31;8.95;;;2.90;;
76576;SDS011;65441;44.748;37.600;2023-05-23T14:43:03;13.88;;;3.10;;
76576;SDS011;65441;44.748;37.600;2023-05-23T14:45:36;18.42;;;3.50;;
76576;SDS011;65441;44.748;37.600;2023-05-23T14:48:11;10.43;;;2.75;;
76576;SDS011;65441;44.748;37.600;2023-05-23T14:50:43;11.20;;;3.00;;
76576;SDS011;65441;44.748;37.600;2023-05-23T14:53:17;13.13;;;2.90;;
76576;SDS011;65441;44.748;37.600;2023-05-23T14:55:51;11.27;;;2.58;;
76576;SDS011;65441;44.748;37.600;2023-05-23T14:58:24;12.77;;;2.92;;
76576;SDS011;65441;44.748;37.600;2023-05-23T15:00:55;10.55;;;2.60;;
76576;SDS011;65441;44.748;37.600;2023-05-23T15:03:29;14.07;;;2.78;;
76576;SDS011;65441;44.748;37.600;2023-05-23T15:06:01;9.02;;;3.20;;
76576;SDS011;65441;44.748;37.600;2023-05-23T15:08:35;13.88;;;2.90;;
76576;SDS011;65441;44.748;37.600;2023-05-23T15:11:06;9.90;;;2.58;;
76576;SDS011;65441;44.748;37.600;2023-05-23T15:13:37;8.73;;;2.70;;
76576;SDS011;65441;44.748;37.600;2023-05-23T15:16:10;10.77;;;3.40;;
76576;SDS011;65441;44.748;37.600;2023-05-23T15:18:41;12.43;;;3.20;;
76576;SDS011;65441;44.748;37.600;2023-05-23T15:21:14;8.27;;;3.03;;